createdAt,value
2023-03-15T00:00:13.608Z,12.01
2023-03-15T00:02:41.801Z,11.98
2023-03-15T00:05:13.159Z,11.99
2023-03-15T00:07:41.344Z,12.00
2023-03-15T00:10:10.174Z,11.99
2023-03-15T00:12:37.771Z,11.96
2023-03-15T00:15:08.332Z,11.92
2023-03-15T00:17:36.498Z,11.81
2023-03-15T00:20:06.554Z,11.77
2023-03-15T00:22:34.886Z,11.78
2023-03-15T00:25:03.231Z,11.70
2023-03-15T00:27:31.181Z,11.60
2023-03-15T00:29:59.282Z,11.64
2023-03-15T00:32:28.172Z,11.63
2023-03-15T00:34:56.654Z,11.61
2023-03-15T00:37:25.805Z,11.57
2023-03-15T00:39:55.737Z,11.51
2023-03-15T00:42:27.515Z,11.45
2023-03-15T00:45:15.217Z,11.27
2023-03-15T00:47:43.291Z,11.20
2023-03-15T00:50:11.494Z,11.21
2023-03-15T00:52:39.848Z,11.36
2023-03-15T00:55:09.891Z,11.37
2023-03-15T00:57:38.024Z,11.41
2023-03-15T01:00:10.409Z,11.47
2023-03-15T01:02:38.564Z,11.46
2023-03-15T01:05:09.596Z,11.39
2023-03-15T01:07:37.742Z,11.38
2023-03-15T01:10:09.080Z,11.39
2023-03-15T01:12:36.990Z,11.38
2023-03-15T01:15:05.959Z,11.38
2023-03-15T01:17:34.102Z,11.40
2023-03-15T01:20:02.469Z,11.48
2023-03-15T01:22:30.574Z,11.46
2023-03-15T01:24:58.270Z,11.46
2023-03-15T01:27:26.587Z,11.42
2023-03-15T01:29:54.480Z,11.33
2023-03-15T01:32:22.617Z,11.22
2023-03-15T01:34:50.400Z,11.05
2023-03-15T01:37:18.638Z,10.97
2023-03-15T01:39:46.696Z,10.93
2023-03-15T01:42:14.852Z,10.95
2023-03-15T01:44:51.540Z,10.91
2023-03-15T01:47:18.812Z,10.80
2023-03-15T01:49:46.981Z,10.76
2023-03-15T01:52:20.603Z,10.73
2023-03-15T01:54:52.408Z,10.63
2023-03-15T01:57:22.774Z,10.55
2023-03-15T02:00:32.767Z,10.38
2023-03-15T02:03:03.684Z,10.26
2023-03-15T02:05:33.460Z,10.20
2023-03-15T02:08:04.927Z,10.23
2023-03-15T02:10:43.044Z,10.19
2023-03-15T02:13:10.583Z,10.15
2023-03-15T02:15:38.559Z,10.16
2023-03-15T02:18:06.712Z,10.21
2023-03-15T02:20:39.738Z,10.26
2023-03-15T02:23:11.954Z,10.30
2023-03-15T02:26:00.410Z,10.34
2023-03-15T02:28:28.240Z,10.39
2023-03-15T02:30:56.587Z,10.43
2023-03-15T02:33:29.235Z,10.50
2023-03-15T02:35:57.370Z,10.60
2023-03-15T02:38:25.731Z,10.58
2023-03-15T02:40:53.124Z,10.43
2023-03-15T02:43:22.927Z,10.32
2023-03-15T02:45:50.755Z,10.25
2023-03-15T02:48:17.943Z,10.19
2023-03-15T02:50:45.555Z,10.12
2023-03-15T02:53:13.786Z,9.92
2023-03-15T02:55:40.880Z,9.86
2023-03-15T02:58:08.753Z,9.76
2023-03-15T03:00:36.832Z,9.60
2023-03-15T03:03:05.027Z,9.58
2023-03-15T03:05:33.123Z,9.57
2023-03-15T03:08:02.785Z,9.55
2023-03-15T03:10:30.368Z,9.58
2023-03-15T03:12:58.438Z,9.59
2023-03-15T03:15:26.564Z,9.58
2023-03-15T03:17:54.561Z,9.64
2023-03-15T03:20:22.631Z,9.68
2023-03-15T03:22:50.688Z,9.73
2023-03-15T03:25:18.769Z,9.72
2023-03-15T03:27:47.317Z,9.80
2023-03-15T03:30:15.993Z,9.97
2023-03-15T03:32:43.988Z,9.72
2023-03-15T03:35:14.753Z,9.53
2023-03-15T03:37:43.562Z,9.32
2023-03-15T03:40:13.074Z,9.16
2023-03-15T03:42:41.108Z,9.11
2023-03-15T03:45:11.999Z,9.08
2023-03-15T03:47:40.289Z,9.08
2023-03-15T03:50:13.030Z,9.05
2023-03-15T03:52:44.337Z,9.06
2023-03-15T03:55:14.996Z,9.13
2023-03-15T03:57:43.384Z,9.20
2023-03-15T04:00:16.453Z,9.31
2023-03-15T04:02:44.104Z,9.33
2023-03-15T04:05:12.374Z,9.29
2023-03-15T04:07:40.622Z,9.20
2023-03-15T04:10:14.771Z,8.95
2023-03-15T04:12:43.599Z,8.75
2023-03-15T04:15:12.557Z,8.61
2023-03-15T04:17:40.781Z,8.55
2023-03-15T04:20:12.175Z,8.69
2023-03-15T04:22:40.794Z,8.78
2023-03-15T04:25:09.888Z,8.81
2023-03-15T04:27:38.228Z,8.94
2023-03-15T04:30:08.959Z,8.94
2023-03-15T04:32:36.631Z,9.07
2023-03-15T04:35:07.660Z,9.20
2023-03-15T04:37:35.376Z,9.15
2023-03-15T04:40:04.924Z,9.15
2023-03-15T04:42:32.550Z,9.18
2023-03-15T04:45:00.773Z,9.23
2023-03-15T04:47:29.052Z,9.28
2023-03-15T04:49:57.014Z,9.26
2023-03-15T04:52:24.934Z,9.13
2023-03-15T04:54:52.849Z,8.90
2023-03-15T04:57:20.537Z,8.67
2023-03-15T04:59:48.965Z,8.40
2023-03-15T05:02:17.164Z,8.28
2023-03-15T05:04:45.388Z,8.20
2023-03-15T05:07:13.471Z,8.18
2023-03-15T05:09:41.836Z,8.27
2023-03-15T05:12:10.468Z,8.30
2023-03-15T05:14:39.299Z,8.38
2023-03-15T05:17:07.207Z,8.51
2023-03-15T05:19:35.768Z,8.60
2023-03-15T05:22:03.820Z,8.61
2023-03-15T05:24:32.007Z,8.60
2023-03-15T05:26:59.610Z,8.64
2023-03-15T05:29:27.700Z,8.69
2023-03-15T05:31:55.981Z,8.74
2023-03-15T05:34:24.465Z,8.82
2023-03-15T05:36:52.342Z,8.90
2023-03-15T05:39:20.132Z,8.94
2023-03-15T05:41:48.446Z,9.04
2023-03-15T05:44:16.577Z,9.01
2023-03-15T05:46:43.729Z,9.00
2023-03-15T05:49:11.954Z,9.00
2023-03-15T05:51:39.814Z,9.07
2023-03-15T05:54:07.813Z,9.12
2023-03-15T05:56:36.884Z,9.07
2023-03-15T05:59:05.190Z,9.05
2023-03-15T06:01:33.231Z,8.94
2023-03-15T06:04:01.700Z,8.89
2023-03-15T06:06:29.292Z,8.77
2023-03-15T06:08:57.256Z,8.76
2023-03-15T06:11:25.587Z,8.82
2023-03-15T06:13:53.702Z,8.84
2023-03-15T06:19:04.383Z,8.82
2023-03-15T06:21:33.020Z,8.78
2023-03-15T06:24:01.419Z,8.71
2023-03-15T06:26:29.339Z,8.73
2023-03-15T06:28:57.820Z,8.79
2023-03-15T06:39:45.526Z,8.49
2023-03-15T06:42:13.870Z,8.41
2023-03-15T06:44:41.798Z,8.46
2023-03-15T06:47:11.359Z,8.54
2023-03-15T06:49:39.395Z,8.74
2023-03-15T06:52:11.084Z,8.89
2023-03-15T06:54:39.469Z,9.02
2023-03-15T07:10:33.046Z,9.91
2023-03-15T07:13:02.120Z,10.07
2023-03-15T07:15:30.649Z,10.21
2023-03-15T07:17:59.014Z,10.27
2023-03-15T07:20:27.497Z,10.39
2023-03-15T07:22:55.996Z,10.52
2023-03-15T07:25:26.089Z,10.71
2023-03-15T07:27:54.445Z,10.83
2023-03-15T07:30:23.350Z,10.96
2023-03-15T07:32:52.159Z,11.10
2023-03-15T07:35:20.525Z,11.26
2023-03-15T07:37:48.541Z,11.40
2023-03-15T07:40:19.120Z,11.57
2023-03-15T07:42:47.000Z,11.72
2023-03-15T07:45:14.633Z,11.84
2023-03-15T07:47:42.778Z,11.96
2023-03-15T07:50:13.211Z,12.10
2023-03-15T07:52:42.176Z,12.27
2023-03-15T07:55:11.038Z,12.38
2023-03-15T07:57:39.356Z,12.40
2023-03-15T08:00:09.185Z,12.53
2023-03-15T08:02:37.194Z,12.70
2023-03-15T08:05:06.003Z,12.87
2023-03-15T08:07:34.129Z,13.07
2023-03-15T08:10:02.708Z,13.29
2023-03-15T08:12:30.962Z,13.49
2023-03-15T08:14:59.044Z,13.66
2023-03-15T08:17:26.575Z,13.85
2023-03-15T08:19:54.489Z,14.08
2023-03-15T08:22:22.138Z,14.29
2023-03-15T08:24:50.709Z,14.44
2023-03-15T08:27:18.835Z,14.49
2023-03-15T08:29:46.680Z,14.64
2023-03-15T08:32:14.491Z,14.69
2023-03-15T08:34:42.340Z,14.82
2023-03-15T08:37:11.920Z,14.91
2023-03-15T08:39:40.838Z,15.05
2023-03-15T08:42:09.953Z,15.31
2023-03-15T08:44:38.098Z,15.45
2023-03-15T08:47:06.506Z,15.72
2023-03-15T08:49:35.133Z,16.05
2023-03-15T08:52:03.979Z,16.26
2023-03-15T08:54:31.618Z,16.52
2023-03-15T08:56:59.185Z,16.67
2023-03-15T08:59:31.674Z,16.80
2023-03-15T09:02:01.383Z,16.85
2023-03-15T09:04:29.030Z,16.72
2023-03-15T09:06:56.948Z,16.52
2023-03-15T09:09:25.274Z,16.42
2023-03-15T09:11:53.338Z,16.47
2023-03-15T09:14:21.022Z,16.43
2023-03-15T09:16:49.781Z,16.63
2023-03-15T09:19:18.096Z,16.64
2023-03-15T09:21:47.201Z,16.50
2023-03-15T09:24:14.931Z,16.47
2023-03-15T09:26:43.008Z,16.44
2023-03-15T09:29:11.342Z,16.44
2023-03-15T09:31:39.156Z,16.54
2023-03-15T09:34:07.006Z,16.65
2023-03-15T09:36:35.531Z,16.57
2023-03-15T09:39:03.767Z,16.59
2023-03-15T09:41:47.087Z,16.60
2023-03-15T09:44:20.588Z,16.58
2023-03-15T09:46:55.092Z,16.51
2023-03-15T09:49:40.049Z,16.45
2023-03-15T09:52:13.922Z,16.27
2023-03-15T09:55:00.247Z,16.09
2023-03-15T09:57:36.861Z,15.90
2023-03-15T10:00:06.627Z,15.84
2023-03-15T10:02:56.537Z,15.70
2023-03-15T10:05:26.760Z,15.54
2023-03-15T10:07:55.341Z,15.60
2023-03-15T10:10:34.272Z,15.80
2023-03-15T10:13:16.764Z,15.91
2023-03-15T10:16:03.748Z,16.08
2023-03-15T10:19:02.110Z,16.06
2023-03-15T10:21:51.380Z,16.13
2023-03-15T10:24:47.520Z,16.22
2023-03-15T10:27:53.460Z,16.28
2023-03-15T10:30:25.333Z,16.43
2023-03-15T10:32:57.308Z,16.55
2023-03-15T10:35:31.913Z,16.66
2023-03-15T10:38:00.039Z,16.83
2023-03-15T10:40:44.373Z,16.94
2023-03-15T10:43:18.304Z,17.05
2023-03-15T10:46:09.423Z,17.12
2023-03-15T10:48:38.624Z,17.25
2023-03-15T10:51:42.244Z,17.62
2023-03-15T10:54:46.448Z,17.97
2023-03-15T10:57:15.688Z,18.12
2023-03-15T11:00:21.333Z,18.53
2023-03-15T11:02:52.053Z,19.07
2023-03-15T11:05:20.010Z,18.57
2023-03-15T11:07:55.318Z,18.03
2023-03-15T11:10:30.183Z,17.83
2023-03-15T11:13:49.018Z,18.38
2023-03-15T11:16:16.120Z,19.37
2023-03-15T11:18:55.927Z,18.68
2023-03-15T11:21:26.190Z,17.65
2023-03-15T11:26:35.061Z,15.81
2023-03-15T11:29:06.762Z,15.07
2023-03-15T11:31:34.891Z,14.69
2023-03-15T11:34:36.359Z,14.40
2023-03-15T11:37:09.909Z,14.18
2023-03-15T11:47:48.810Z,13.75
2023-03-15T11:50:36.530Z,13.66
2023-03-15T11:56:26.248Z,13.28
2023-03-15T12:04:33.786Z,14.69
2023-03-15T12:07:03.554Z,15.49
2023-03-15T12:09:33.817Z,16.13
2023-03-15T12:12:03.115Z,16.44
2023-03-15T12:14:32.644Z,16.77
2023-03-15T12:17:24.440Z,17.04
2023-03-15T12:20:01.382Z,17.29
2023-03-15T12:25:18.242Z,17.47
2023-03-15T12:27:55.754Z,17.59
2023-03-15T12:33:00.212Z,18.44
2023-03-15T12:35:30.189Z,18.58
2023-03-15T12:38:01.797Z,18.86
2023-03-15T12:40:28.770Z,18.83
2023-03-15T12:42:57.486Z,19.05
2023-03-15T12:45:40.213Z,19.28
2023-03-15T12:48:08.785Z,19.67
2023-03-15T12:53:39.033Z,19.91
2023-03-15T12:56:17.860Z,20.06
2023-03-15T12:59:06.813Z,20.09
2023-03-15T13:01:33.767Z,20.27
2023-03-15T13:04:01.640Z,20.18
2023-03-15T13:06:37.099Z,20.26
2023-03-15T13:09:04.850Z,20.54
2023-03-15T13:11:33.308Z,20.61
2023-03-15T13:14:09.845Z,20.84
2023-03-15T13:16:40.230Z,21.09
2023-03-15T13:19:33.085Z,21.45
2023-03-15T13:22:33.189Z,21.42
2023-03-15T13:28:13.321Z,21.42
2023-03-15T13:30:47.188Z,21.52
2023-03-15T13:33:21.069Z,21.54
2023-03-15T13:35:55.098Z,21.36
2023-03-15T13:38:36.404Z,21.45
2023-03-15T13:43:45.591Z,22.10
2023-03-15T13:46:14.473Z,22.27
2023-03-15T13:51:25.786Z,22.76
2023-03-15T13:54:20.167Z,22.84
2023-03-15T13:57:03.524Z,22.90
2023-03-15T13:59:57.332Z,23.02
2023-03-15T14:02:36.071Z,23.33
2023-03-15T14:05:09.413Z,23.63
2023-03-15T14:07:40.710Z,23.86
2023-03-15T14:10:32.831Z,23.85
2023-03-15T14:13:24.059Z,24.01
2023-03-15T14:16:07.699Z,23.94
2023-03-15T14:18:39.179Z,24.08
2023-03-15T14:21:17.873Z,24.21
2023-03-15T14:23:46.710Z,24.56
2023-03-15T14:26:21.634Z,24.69
2023-03-15T14:29:02.218Z,24.56
2023-03-15T14:31:32.283Z,24.64
2023-03-15T14:34:25.908Z,24.91
2023-03-15T14:36:54.397Z,25.28
2023-03-15T14:39:41.811Z,25.08
2023-03-15T14:42:13.216Z,24.75
2023-03-15T14:44:40.753Z,24.36
2023-03-15T14:47:13.034Z,23.89
2023-03-15T14:49:40.775Z,23.20
2023-03-15T14:52:09.312Z,22.59
2023-03-15T14:54:37.711Z,22.24
2023-03-15T14:57:05.832Z,21.86
2023-03-15T14:59:34.006Z,21.72
2023-03-15T15:04:40.815Z,20.89
2023-03-15T15:07:11.432Z,20.77
2023-03-15T15:15:03.000Z,21.32
2023-03-15T15:23:02.394Z,22.24
2023-03-15T15:25:34.082Z,22.60
2023-03-15T15:28:02.160Z,22.64
2023-03-15T15:30:31.322Z,22.83
2023-03-15T15:32:59.976Z,22.96
2023-03-15T15:35:29.745Z,22.96
2023-03-15T15:40:38.706Z,22.11
2023-03-15T15:43:07.323Z,21.78
2023-03-15T15:45:36.196Z,21.26
2023-03-15T15:48:06.642Z,20.93
2023-03-15T15:50:36.959Z,20.70
2023-03-15T15:58:29.974Z,20.59
2023-03-15T16:00:58.384Z,20.48
2023-03-15T16:03:27.064Z,20.31
2023-03-15T16:14:24.090Z,20.40
2023-03-15T16:30:49.974Z,22.90
2023-03-15T16:33:21.134Z,22.63
2023-03-15T16:35:53.631Z,21.41
2023-03-15T16:38:34.933Z,20.37
2023-03-15T16:41:03.985Z,19.55
2023-03-15T16:43:32.791Z,18.96
2023-03-15T16:46:01.256Z,18.57
2023-03-15T16:48:30.553Z,18.17
2023-03-15T16:50:59.225Z,17.77
2023-03-15T16:53:28.510Z,17.47
2023-03-15T16:55:59.965Z,17.44
2023-03-15T16:58:28.473Z,17.29
2023-03-15T17:00:56.409Z,17.11
2023-03-15T17:03:25.874Z,16.96
2023-03-15T17:05:54.384Z,16.78
2023-03-15T17:08:22.359Z,16.64
2023-03-15T17:10:50.456Z,16.48
2023-03-15T17:13:19.841Z,16.31
2023-03-15T17:15:49.073Z,16.14
2023-03-15T17:18:19.148Z,15.95
2023-03-15T17:20:48.982Z,15.76
2023-03-15T17:23:17.465Z,15.48
2023-03-15T17:25:45.880Z,15.26
2023-03-15T17:28:14.316Z,15.15
2023-03-15T17:30:46.334Z,15.02
2023-03-15T17:33:15.319Z,14.91
2023-03-15T17:35:44.649Z,14.84
2023-03-15T17:38:25.815Z,14.78
2023-03-15T17:40:54.526Z,14.70
2023-03-15T17:43:22.280Z,14.56
2023-03-15T17:45:50.119Z,14.45
2023-03-15T17:48:18.150Z,14.34
2023-03-15T17:50:45.692Z,14.19
2023-03-15T17:53:17.934Z,14.09
2023-03-15T17:55:54.280Z,13.95
2023-03-15T17:58:22.202Z,13.96
2023-03-15T18:00:50.683Z,13.97
2023-03-15T18:03:20.619Z,13.90
2023-03-15T18:05:49.145Z,13.77
2023-03-15T18:08:21.494Z,13.73
2023-03-15T18:11:00.866Z,13.69
2023-03-15T18:13:30.053Z,13.62
2023-03-15T18:15:58.400Z,13.49
2023-03-15T18:18:27.370Z,13.40
2023-03-15T18:20:55.295Z,13.35
2023-03-15T18:23:23.568Z,13.26
2023-03-15T18:25:52.705Z,13.19
2023-03-15T18:28:21.155Z,13.13
2023-03-15T18:30:50.156Z,13.14
2023-03-15T18:33:19.387Z,13.21
2023-03-15T18:35:48.452Z,13.21
2023-03-15T18:38:17.436Z,13.15
2023-03-15T18:40:46.292Z,13.05
2023-03-15T18:43:40.767Z,12.87
2023-03-15T18:46:10.158Z,12.71
2023-03-15T18:48:40.998Z,12.51
2023-03-15T18:51:12.424Z,12.37
2023-03-15T18:53:40.786Z,12.24
2023-03-15T18:56:20.590Z,12.24
2023-03-15T18:58:49.748Z,12.32
2023-03-15T19:01:19.341Z,12.32
2023-03-15T19:55:01.239Z,11.75
2023-03-15T19:57:30.266Z,11.73
2023-03-15T19:59:58.000Z,11.65
2023-03-15T20:02:26.676Z,11.60
2023-03-15T20:04:55.180Z,11.48
2023-03-15T20:07:24.196Z,11.44
2023-03-15T20:09:55.772Z,11.39
2023-03-15T20:12:24.161Z,11.32
2023-03-15T20:14:53.073Z,11.28
2023-03-15T20:17:21.479Z,11.19
2023-03-15T20:52:06.122Z,10.45
2023-03-15T20:54:34.446Z,10.48
2023-03-15T20:57:04.137Z,10.53
2023-03-15T20:59:33.157Z,10.55
2023-03-15T21:02:03.001Z,10.60
2023-03-15T21:04:31.874Z,10.55
2023-03-15T21:07:04.431Z,10.54
2023-03-15T21:09:33.125Z,10.54
2023-03-15T21:12:04.110Z,10.53
2023-03-15T21:14:33.840Z,10.45
2023-03-15T21:17:04.168Z,10.44
2023-03-15T21:19:32.415Z,10.36
2023-03-15T21:22:03.037Z,10.32
2023-03-15T21:24:40.631Z,10.28
2023-03-15T21:27:13.827Z,10.24
2023-03-15T21:29:44.248Z,10.20
2023-03-15T21:32:15.888Z,10.12
2023-03-15T21:34:46.454Z,10.19
2023-03-15T21:37:15.798Z,10.16
2023-03-15T22:05:40.856Z,9.47
2023-03-15T22:08:09.644Z,9.37
2023-03-15T22:24:09.827Z,9.52
2023-03-15T22:26:38.231Z,9.52
2023-03-15T22:29:06.005Z,9.53
2023-03-15T22:31:34.101Z,9.45
2023-03-15T22:34:04.833Z,9.32
2023-03-15T22:36:36.475Z,9.10
2023-03-15T22:39:04.959Z,8.89
2023-03-15T22:41:32.886Z,8.82
2023-03-15T22:44:01.676Z,8.81
2023-03-15T22:46:34.841Z,8.81
2023-03-15T22:49:03.005Z,8.80
2023-03-15T22:51:31.747Z,8.82
2023-03-15T22:54:00.230Z,8.79
2023-03-15T22:56:28.637Z,8.85
2023-03-15T22:58:57.048Z,8.88
2023-03-15T23:01:25.742Z,8.88
2023-03-15T23:03:54.217Z,8.80
2023-03-15T23:06:23.179Z,8.81
2023-03-15T23:08:54.875Z,8.82
2023-03-15T23:11:23.295Z,8.83
2023-03-15T23:13:52.119Z,8.75
2023-03-15T23:16:19.742Z,8.75
2023-03-15T23:18:48.924Z,8.77
2023-03-15T23:21:17.296Z,8.75
2023-03-15T23:23:45.808Z,8.72
2023-03-15T23:26:19.603Z,8.69
2023-03-15T23:28:54.802Z,8.69
2023-03-15T23:31:23.240Z,8.67
2023-03-15T23:33:52.468Z,8.63
2023-03-15T23:36:20.763Z,8.57
2023-03-15T23:38:49.076Z,8.56
2023-03-15T23:41:17.887Z,8.46
2023-03-15T23:43:46.414Z,8.45
2023-03-15T23:46:14.619Z,8.44
2023-03-15T23:48:42.541Z,8.39
2023-03-15T23:51:12.939Z,8.34
2023-03-15T23:53:42.428Z,8.31
2023-03-15T23:56:10.487Z,8.26
2023-03-15T23:58:39.276Z,8.26
